Terminal Aerodrome Forecast
Issued by NWS Raleigh/Durham, NC

Home | Current Version | Previous Version | Text Only | Print | Product List | Glossary On
Versions: 1 2 3 4 5 6 7 8 9 10 11 12
000
FTUS42 KRAH 171127
TAFFAY
TAF
KFAY 171127Z 1712/1812 VRB03KT P6SM BKN250
     FM171900 22004KT P6SM OVC060
     FM180300 22004KT P6SM OVC035
     FM180600 VRB03KT P6SM BKN100=

USA.gov is the U.S. government's official web portal to all federal, state and local government web resources and services.